createdAt,value
2019-05-06T00:00:06.818Z,4.03
2019-05-06T00:01:06.819Z,4.00
2019-05-06T00:02:06.828Z,3.99
2019-05-06T00:03:06.806Z,3.97
2019-05-06T00:04:06.786Z,3.93
2019-05-06T00:05:06.767Z,3.91
2019-05-06T00:06:06.766Z,3.89
2019-05-06T00:07:06.765Z,3.87
2019-05-06T00:08:06.729Z,3.84
2019-05-06T00:09:06.720Z,3.82
2019-05-06T00:10:06.707Z,3.80
2019-05-06T00:11:06.694Z,3.77
2019-05-06T00:12:06.726Z,3.77
2019-05-06T00:13:06.679Z,3.76
2019-05-06T00:14:06.681Z,3.74
2019-05-06T00:15:06.647Z,3.73
2019-05-06T00:16:06.646Z,3.72
2019-05-06T00:17:06.669Z,3.73
2019-05-06T00:18:06.632Z,3.72
2019-05-06T00:19:06.628Z,3.73
2019-05-06T00:20:06.605Z,3.73
2019-05-06T00:21:06.597Z,3.72
2019-05-06T00:22:06.587Z,3.73
2019-05-06T00:23:06.596Z,3.73
2019-05-06T00:24:06.567Z,3.74
2019-05-06T00:25:06.556Z,3.74
2019-05-06T00:26:06.566Z,3.75
2019-05-06T00:27:06.525Z,3.75
2019-05-06T00:28:06.525Z,3.74
2019-05-06T00:29:06.503Z,3.74
2019-05-06T00:30:06.516Z,3.74
2019-05-06T00:31:12.637Z,3.72
2019-05-06T00:32:07.476Z,3.69
2019-05-06T00:33:06.454Z,3.69
2019-05-06T00:34:06.454Z,3.67
2019-05-06T00:35:06.447Z,3.67
2019-05-06T00:36:06.436Z,3.65
2019-05-06T00:37:06.434Z,3.65
2019-05-06T00:38:06.394Z,3.64
2019-05-06T00:39:06.404Z,3.65
2019-05-06T00:40:06.384Z,3.63
2019-05-06T00:41:06.363Z,3.65
2019-05-06T00:42:06.391Z,3.63
2019-05-06T00:43:06.345Z,3.64
2019-05-06T00:44:06.345Z,3.64
2019-05-06T00:45:06.322Z,3.63
2019-05-06T00:46:06.338Z,3.62
2019-05-06T00:47:06.311Z,3.62
2019-05-06T00:48:06.312Z,3.60
2019-05-06T00:49:06.293Z,3.58
2019-05-06T00:50:06.277Z,3.56
2019-05-06T00:51:06.273Z,3.53
2019-05-06T00:52:06.252Z,3.52
2019-05-06T00:53:06.262Z,3.50
2019-05-06T00:54:06.236Z,3.47
2019-05-06T00:55:06.213Z,3.45
2019-05-06T00:56:06.209Z,3.42
2019-05-06T00:57:06.209Z,3.40
2019-05-06T00:58:06.201Z,3.39
2019-05-06T00:59:06.183Z,3.36
2019-05-06T01:00:06.159Z,3.34
2019-05-06T01:01:06.169Z,3.32
2019-05-06T01:02:06.153Z,3.29
2019-05-06T01:03:06.161Z,3.27
2019-05-06T01:04:06.135Z,3.25
2019-05-06T01:05:06.110Z,3.24
2019-05-06T01:06:06.098Z,3.22
2019-05-06T01:07:06.088Z,3.22
2019-05-06T01:08:06.096Z,3.19
2019-05-06T01:09:06.072Z,3.19
2019-05-06T01:10:06.076Z,3.19
2019-05-06T01:11:06.051Z,3.18
2019-05-06T01:12:06.054Z,3.18
2019-05-06T01:13:06.037Z,3.16
2019-05-06T01:14:06.021Z,3.14
2019-05-06T01:15:06.008Z,3.14
2019-05-06T01:16:05.998Z,3.13
2019-05-06T01:17:05.999Z,3.12
2019-05-06T01:18:05.979Z,3.10
2019-05-06T01:19:05.959Z,3.09
2019-05-06T01:20:05.959Z,3.08
2019-05-06T01:21:05.943Z,3.06
2019-05-06T01:22:05.944Z,3.06
2019-05-06T01:23:05.914Z,3.05
2019-05-06T01:24:05.921Z,3.04
2019-05-06T01:25:05.897Z,3.05
2019-05-06T01:26:05.883Z,3.04
2019-05-06T01:27:05.864Z,3.05
2019-05-06T01:28:05.858Z,3.07
2019-05-06T01:29:05.878Z,3.08
2019-05-06T01:30:05.838Z,3.09
2019-05-06T01:31:05.837Z,3.12
2019-05-06T01:32:05.818Z,3.15
2019-05-06T01:33:05.826Z,3.17
2019-05-06T01:34:05.817Z,3.18
2019-05-06T01:35:05.788Z,3.18
2019-05-06T01:36:05.778Z,3.19
2019-05-06T01:37:05.788Z,3.19
2019-05-06T01:38:05.758Z,3.19
2019-05-06T01:39:05.741Z,3.18
2019-05-06T01:40:05.743Z,3.18
2019-05-06T01:41:05.717Z,3.18
2019-05-06T01:42:05.724Z,3.17
2019-05-06T01:43:05.694Z,3.16
2019-05-06T01:44:05.691Z,3.14
2019-05-06T01:45:05.664Z,3.13
2019-05-06T01:46:05.690Z,3.12
2019-05-06T01:47:05.656Z,3.09
2019-05-06T01:48:05.645Z,3.06
2019-05-06T01:49:05.634Z,3.05
2019-05-06T01:50:05.633Z,3.04
2019-05-06T01:51:05.632Z,3.01
2019-05-06T01:52:05.610Z,2.99
2019-05-06T01:53:05.583Z,2.95
2019-05-06T01:54:05.578Z,2.94
2019-05-06T01:55:05.560Z,2.92
2019-05-06T01:56:05.613Z,2.92
2019-05-06T01:57:05.563Z,2.91
2019-05-06T01:58:05.534Z,2.89
2019-05-06T01:59:05.522Z,2.87
2019-05-06T02:00:05.513Z,2.86
2019-05-06T02:01:05.512Z,2.84
2019-05-06T02:02:05.499Z,2.84
2019-05-06T02:03:05.482Z,2.82
2019-05-06T02:04:05.463Z,2.81
2019-05-06T02:05:05.459Z,2.80
2019-05-06T02:06:05.441Z,2.79
2019-05-06T02:07:05.472Z,2.79
2019-05-06T02:08:05.419Z,2.77
2019-05-06T02:09:05.418Z,2.78
2019-05-06T02:10:05.400Z,2.77
2019-05-06T02:11:05.393Z,2.77
2019-05-06T02:12:05.381Z,2.79
2019-05-06T02:13:05.400Z,2.82
2019-05-06T02:14:05.360Z,2.84
2019-05-06T02:15:05.360Z,2.88
2019-05-06T02:16:05.329Z,2.90
2019-05-06T02:17:05.360Z,2.94
2019-05-06T02:18:05.322Z,2.96
2019-05-06T02:19:05.318Z,2.99
2019-05-06T02:20:05.287Z,3.02
2019-05-06T02:21:05.575Z,3.03
2019-05-06T02:22:05.287Z,3.04
2019-05-06T02:23:05.279Z,3.05
2019-05-06T02:24:05.267Z,3.05
2019-05-06T02:25:05.237Z,3.06
2019-05-06T02:26:05.228Z,3.06
2019-05-06T02:27:05.220Z,3.05
2019-05-06T02:28:05.204Z,3.05
2019-05-06T02:29:05.219Z,3.05
2019-05-06T02:30:05.689Z,3.04
2019-05-06T02:31:05.428Z,3.06
2019-05-06T02:32:17.307Z,3.07
2019-05-06T02:33:06.152Z,3.08
2019-05-06T02:34:05.357Z,3.09
2019-05-06T02:35:05.454Z,3.12
2019-05-06T02:36:06.540Z,3.15
2019-05-06T02:37:06.350Z,3.17
2019-05-06T02:38:05.218Z,3.20
2019-05-06T02:39:05.088Z,3.25
2019-05-06T02:40:05.069Z,3.29
2019-05-06T02:41:05.070Z,3.36
2019-05-06T02:42:05.078Z,3.42
2019-05-06T02:43:05.045Z,3.47
2019-05-06T02:44:05.038Z,3.52
2019-05-06T02:45:05.038Z,3.58
2019-05-06T02:46:05.015Z,3.61
2019-05-06T02:47:05.014Z,3.68
2019-05-06T02:48:04.983Z,3.72
2019-05-06T02:49:04.978Z,3.76
2019-05-06T02:50:04.997Z,3.80
2019-05-06T02:51:04.973Z,3.84
2019-05-06T02:52:04.957Z,3.88
2019-05-06T02:53:04.934Z,3.91
2019-05-06T02:54:04.927Z,3.94
2019-05-06T02:55:06.388Z,3.98
2019-05-06T02:56:05.405Z,4.00
2019-05-06T02:57:04.913Z,4.03
2019-05-06T02:58:04.874Z,4.06
2019-05-06T02:59:04.871Z,4.06
2019-05-06T03:00:05.381Z,4.06
2019-05-06T03:01:04.857Z,4.05
2019-05-06T03:02:04.851Z,4.05
2019-05-06T03:03:04.822Z,4.02
2019-05-06T03:04:04.935Z,4.01
2019-05-06T03:05:04.813Z,3.99
2019-05-06T03:06:04.835Z,3.96
2019-05-06T03:07:04.785Z,3.95
2019-05-06T03:08:04.767Z,3.94
2019-05-06T03:09:04.763Z,3.93
2019-05-06T03:10:04.741Z,3.91
2019-05-06T03:11:04.777Z,3.91
2019-05-06T03:12:04.738Z,3.90
2019-05-06T03:13:04.735Z,3.89
2019-05-06T03:14:04.734Z,3.89
2019-05-06T03:15:04.711Z,3.89
2019-05-06T03:16:05.857Z,3.89
2019-05-06T03:17:04.689Z,3.90
2019-05-06T03:18:04.674Z,3.91
2019-05-06T03:19:04.652Z,3.91
2019-05-06T03:20:05.776Z,3.93
2019-05-06T03:21:04.636Z,3.93
2019-05-06T03:22:04.618Z,3.92
2019-05-06T03:23:04.689Z,3.92
2019-05-06T03:24:07.506Z,3.92
2019-05-06T03:25:06.968Z,3.89
2019-05-06T03:26:06.489Z,3.90
2019-05-06T03:27:04.992Z,3.89
2019-05-06T03:28:04.582Z,3.89
2019-05-06T03:29:04.559Z,3.88
2019-05-06T03:30:04.671Z,3.84
2019-05-06T03:31:06.629Z,3.84
2019-05-06T03:32:06.911Z,3.81
2019-05-06T03:34:28.909Z,3.76
2019-05-06T03:35:25.764Z,3.74
2019-05-06T03:36:14.925Z,3.69
2019-05-06T03:37:07.848Z,3.68
2019-05-06T03:38:04.479Z,3.64
2019-05-06T03:39:04.447Z,3.62
2019-05-06T03:40:04.429Z,3.60
2019-05-06T03:41:04.422Z,3.58
2019-05-06T03:42:04.927Z,3.57
2019-05-06T03:43:04.570Z,3.56
2019-05-06T03:44:04.389Z,3.57
2019-05-06T03:45:04.573Z,3.56
2019-05-06T03:46:04.706Z,3.55
2019-05-06T03:47:05.719Z,3.56
2019-05-06T03:48:05.952Z,3.55
2019-05-06T03:49:04.618Z,3.55
2019-05-06T03:50:05.507Z,3.57
2019-05-06T03:51:04.433Z,3.58
2019-05-06T03:52:04.335Z,3.62
2019-05-06T03:53:04.965Z,3.64
2019-05-06T03:54:04.319Z,3.66
2019-05-06T03:55:04.406Z,3.68
2019-05-06T03:56:04.259Z,3.70
2019-05-06T03:57:04.317Z,3.70
2019-05-06T03:58:04.280Z,3.72
2019-05-06T03:59:04.237Z,3.74
2019-05-06T04:00:05.061Z,3.76
2019-05-06T04:01:04.209Z,3.78
2019-05-06T04:02:05.160Z,3.80
2019-05-06T04:03:04.171Z,3.84
2019-05-06T04:04:04.189Z,3.85
2019-05-06T04:05:04.397Z,3.86
2019-05-06T04:06:04.667Z,3.89
2019-05-06T04:07:04.147Z,3.91
2019-05-06T04:08:04.209Z,3.93
2019-05-06T04:09:04.110Z,3.97
2019-05-06T04:10:04.204Z,4.00
2019-05-06T04:11:04.113Z,4.03
2019-05-06T04:12:04.101Z,4.07
2019-05-06T04:13:04.380Z,4.12
2019-05-06T04:14:04.067Z,4.17
2019-05-06T04:15:04.445Z,4.21
2019-05-06T04:16:04.137Z,4.26
2019-05-06T04:17:04.040Z,4.30
2019-05-06T04:18:04.182Z,4.35
2019-05-06T04:19:04.358Z,4.39
2019-05-06T04:20:04.806Z,4.45
2019-05-06T04:21:08.547Z,4.50
2019-05-06T04:22:04.010Z,4.54
2019-05-06T04:23:06.455Z,4.61
2019-05-06T04:24:04.399Z,4.66
2019-05-06T04:25:04.341Z,4.72
2019-05-06T04:26:04.653Z,4.80
2019-05-06T04:27:04.150Z,4.86
2019-05-06T04:28:04.239Z,4.93
2019-05-06T04:29:04.201Z,4.99
2019-05-06T04:30:04.961Z,5.07
2019-05-06T04:31:04.089Z,5.15
2019-05-06T04:32:03.951Z,5.21
2019-05-06T04:33:04.107Z,5.28
2019-05-06T04:34:12.938Z,5.34
2019-05-06T04:35:05.042Z,5.42
2019-05-06T04:36:03.997Z,5.49
2019-05-06T04:37:03.841Z,5.57
2019-05-06T04:38:04.931Z,5.63
2019-05-06T04:39:04.396Z,5.69
2019-05-06T04:40:04.467Z,5.78
2019-05-06T04:41:04.283Z,5.86
2019-05-06T04:42:03.763Z,5.92
2019-05-06T04:43:03.865Z,5.98
2019-05-06T04:44:07.273Z,6.05
2019-05-06T04:45:04.550Z,6.11
2019-05-06T04:46:03.941Z,6.16
2019-05-06T04:47:05.435Z,6.21
2019-05-06T04:48:04.061Z,6.27
2019-05-06T04:49:04.170Z,6.32
2019-05-06T04:50:04.811Z,6.41
2019-05-06T04:51:03.714Z,6.47
2019-05-06T04:52:03.830Z,6.53
2019-05-06T04:53:05.211Z,6.59
2019-05-06T04:54:04.180Z,6.63
2019-05-06T04:55:03.933Z,6.68
2019-05-06T04:56:04.229Z,6.73
2019-05-06T04:57:05.047Z,6.78
2019-05-06T04:58:04.160Z,6.81
2019-05-06T04:59:06.250Z,6.85
2019-05-06T05:00:04.407Z,6.87
2019-05-06T05:01:04.298Z,6.89
2019-05-06T05:02:03.904Z,6.93
2019-05-06T05:03:03.535Z,6.97
2019-05-06T05:04:03.787Z,6.99
2019-05-06T05:05:04.312Z,7.03
2019-05-06T05:06:05.845Z,7.05
2019-05-06T05:07:03.579Z,7.08
2019-05-06T05:08:03.516Z,7.11
2019-05-06T05:09:03.524Z,7.15
2019-05-06T05:10:03.685Z,7.18
2019-05-06T05:11:03.722Z,7.22
2019-05-06T05:12:03.423Z,7.28
2019-05-06T05:13:03.683Z,7.34
2019-05-06T05:14:03.462Z,7.40
2019-05-06T05:15:03.422Z,7.44
2019-05-06T05:16:03.392Z,7.51
2019-05-06T05:17:03.431Z,7.57
2019-05-06T05:18:03.371Z,7.61
2019-05-06T05:19:03.393Z,7.64
2019-05-06T05:20:03.342Z,7.70
2019-05-06T05:21:03.349Z,7.75
2019-05-06T05:22:03.321Z,7.81
2019-05-06T05:23:03.353Z,7.86
2019-05-06T05:24:03.331Z,7.92
2019-05-06T05:25:03.585Z,8.00
2019-05-06T05:26:03.299Z,8.05
2019-05-06T05:27:03.300Z,8.10
2019-05-06T05:28:03.263Z,8.16
2019-05-06T05:29:03.267Z,8.23
2019-05-06T05:30:03.231Z,8.27
2019-05-06T05:31:03.271Z,8.29
2019-05-06T05:32:03.218Z,8.32
2019-05-06T05:33:03.230Z,8.36
2019-05-06T05:34:03.189Z,8.39
2019-05-06T05:35:03.237Z,8.42
2019-05-06T05:36:03.174Z,8.44
2019-05-06T05:37:03.204Z,8.44
2019-05-06T05:38:03.197Z,8.45
2019-05-06T05:39:03.475Z,8.46
2019-05-06T05:40:03.270Z,8.45
2019-05-06T05:41:03.221Z,8.46
2019-05-06T05:42:03.120Z,8.46
2019-05-06T05:43:03.093Z,8.48
2019-05-06T05:44:03.092Z,8.49
2019-05-06T05:45:03.081Z,8.48
2019-05-06T05:46:03.103Z,8.50
2019-05-06T05:47:03.544Z,8.53
2019-05-06T05:48:03.055Z,8.58
2019-05-06T05:49:03.044Z,8.62
2019-05-06T05:50:03.253Z,8.67
2019-05-06T05:51:03.401Z,8.72
2019-05-06T05:52:03.540Z,8.77
2019-05-06T05:53:03.031Z,8.84
2019-05-06T05:54:02.981Z,8.93
2019-05-06T05:55:03.003Z,9.02
2019-05-06T05:56:02.972Z,9.10
2019-05-06T05:57:02.976Z,9.19
2019-05-06T05:58:03.305Z,9.29
2019-05-06T05:59:03.443Z,9.37
2019-05-06T06:00:03.965Z,9.46
2019-05-06T06:01:04.126Z,9.55
2019-05-06T06:02:03.856Z,9.65
2019-05-06T06:03:03.021Z,9.74
2019-05-06T06:04:03.204Z,9.87
2019-05-06T06:05:02.869Z,9.98
2019-05-06T06:06:03.223Z,10.09
2019-05-06T06:07:03.008Z,10.19
2019-05-06T06:08:03.808Z,10.29
2019-05-06T06:09:03.244Z,10.39
2019-05-06T06:10:02.832Z,10.47
2019-05-06T06:11:04.289Z,10.56
2019-05-06T06:12:02.880Z,10.65
2019-05-06T06:13:02.959Z,10.76
2019-05-06T06:14:03.096Z,10.86
2019-05-06T06:15:02.755Z,10.93
2019-05-06T06:16:02.916Z,10.95
2019-05-06T06:17:02.727Z,10.93
2019-05-06T06:18:03.077Z,10.92
2019-05-06T06:19:03.241Z,10.95
2019-05-06T06:20:02.775Z,10.97
2019-05-06T06:21:16.978Z,11.00
2019-05-06T06:22:03.697Z,11.03
2019-05-06T06:23:02.965Z,11.03
2019-05-06T06:24:02.853Z,11.06
2019-05-06T06:25:04.227Z,11.09
2019-05-06T06:26:04.047Z,11.14
2019-05-06T06:27:03.044Z,11.20
2019-05-06T06:28:02.785Z,11.28
2019-05-06T06:29:03.277Z,11.37
2019-05-06T06:30:02.643Z,11.47
2019-05-06T06:31:03.058Z,11.57
2019-05-06T06:32:03.119Z,11.66
2019-05-06T06:33:02.704Z,11.73
2019-05-06T06:34:02.543Z,11.81
2019-05-06T06:35:10.596Z,11.87
2019-05-06T06:36:03.523Z,11.90
2019-05-06T06:37:02.660Z,11.92
2019-05-06T06:38:02.797Z,11.93
2019-05-06T06:39:02.501Z,11.92
2019-05-06T06:40:02.780Z,11.91
2019-05-06T06:41:02.846Z,11.91
2019-05-06T06:42:02.831Z,11.94
2019-05-06T06:43:02.446Z,11.98
2019-05-06T06:44:02.454Z,12.05
2019-05-06T06:45:03.480Z,12.10
2019-05-06T06:46:02.578Z,12.17
2019-05-06T06:47:02.411Z,12.23
2019-05-06T06:48:03.108Z,12.29
2019-05-06T06:49:03.250Z,12.31
2019-05-06T06:50:02.800Z,12.33
2019-05-06T06:51:03.472Z,12.36
2019-05-06T06:52:02.962Z,12.44
2019-05-06T06:53:03.058Z,12.53
2019-05-06T06:54:02.625Z,12.61
2019-05-06T06:55:02.622Z,12.76
2019-05-06T06:56:02.345Z,12.87
2019-05-06T06:57:08.727Z,13.03
2019-05-06T06:58:03.278Z,13.20
2019-05-06T06:59:02.656Z,13.41
2019-05-06T07:00:04.103Z,13.60
2019-05-06T07:01:03.104Z,13.75
2019-05-06T07:02:02.744Z,13.89
2019-05-06T07:03:02.702Z,14.04
2019-05-06T07:04:08.219Z,14.22
2019-05-06T07:05:03.210Z,14.39
2019-05-06T07:06:02.412Z,14.53
2019-05-06T07:07:02.999Z,14.66
2019-05-06T07:08:02.337Z,14.78
2019-05-06T07:09:02.737Z,14.88
2019-05-06T07:10:02.632Z,14.96
2019-05-06T07:11:02.263Z,15.07
2019-05-06T07:12:03.505Z,15.15
2019-05-06T07:13:02.951Z,15.20
2019-05-06T07:14:02.660Z,15.23
2019-05-06T07:15:02.541Z,15.28
2019-05-06T07:16:02.901Z,15.35
2019-05-06T07:17:02.487Z,15.45
2019-05-06T07:18:02.491Z,15.53
2019-05-06T07:19:03.130Z,15.65
2019-05-06T07:20:02.882Z,15.77
2019-05-06T07:21:05.100Z,15.87
2019-05-06T07:22:02.892Z,15.98
2019-05-06T07:23:02.075Z,16.06
2019-05-06T07:24:02.239Z,16.17
2019-05-06T07:25:03.739Z,16.26
2019-05-06T07:26:03.082Z,16.33
2019-05-06T07:27:03.008Z,16.37
2019-05-06T07:28:02.954Z,16.41
2019-05-06T07:29:03.950Z,16.47
2019-05-06T07:30:03.207Z,16.57
2019-05-06T07:31:17.366Z,16.67
2019-05-06T07:32:02.906Z,16.75
2019-05-06T07:33:03.701Z,16.80
2019-05-06T07:34:02.581Z,16.85
2019-05-06T07:35:02.381Z,16.90
2019-05-06T07:36:02.268Z,16.95
2019-05-06T07:37:03.425Z,17.05
2019-05-06T07:38:02.387Z,17.24
2019-05-06T07:39:04.120Z,17.51
2019-05-06T07:40:03.074Z,17.83
2019-05-06T07:41:04.681Z,18.08
2019-05-06T07:42:02.513Z,18.24
2019-05-06T07:43:02.219Z,18.35
2019-05-06T07:44:02.194Z,18.58
2019-05-06T07:45:06.452Z,18.58
2019-05-06T07:46:02.769Z,18.50
2019-05-06T07:47:03.552Z,18.51
2019-05-06T07:48:03.543Z,18.53
2019-05-06T07:49:03.259Z,18.54
2019-05-06T07:50:02.465Z,18.62
2019-05-06T07:51:03.045Z,18.70
2019-05-06T07:52:02.884Z,18.74
2019-05-06T07:53:02.368Z,18.77
2019-05-06T07:54:02.787Z,18.75
2019-05-06T07:55:02.614Z,18.81
2019-05-06T07:56:03.639Z,18.90
2019-05-06T07:57:02.413Z,18.98
2019-05-06T07:58:02.933Z,19.21
2019-05-06T07:59:03.224Z,19.63
2019-05-06T08:00:03.421Z,20.18
2019-05-06T08:01:02.739Z,21.22
2019-05-06T08:02:02.248Z,21.64
2019-05-06T08:03:02.506Z,21.92
2019-05-06T08:04:02.552Z,22.05
2019-05-06T08:05:02.667Z,22.37
2019-05-06T08:06:02.673Z,22.68
2019-05-06T08:07:03.196Z,22.35
2019-05-06T08:08:03.689Z,22.39
2019-05-06T08:09:03.175Z,23.64
2019-05-06T08:10:02.141Z,24.57
2019-05-06T08:11:02.657Z,25.07
2019-05-06T08:12:02.809Z,26.14
2019-05-06T08:13:02.686Z,24.34
2019-05-06T08:14:02.205Z,22.55
2019-05-06T08:15:05.005Z,21.23
2019-05-06T08:16:02.245Z,20.33
2019-05-06T08:17:02.266Z,19.68
2019-05-06T08:18:03.320Z,19.24
2019-05-06T08:19:02.744Z,18.83
2019-05-06T08:20:02.514Z,18.47
2019-05-06T08:21:02.421Z,18.15
2019-05-06T08:22:02.753Z,18.00
2019-05-06T08:23:02.120Z,18.08
2019-05-06T08:24:02.699Z,18.53
2019-05-06T08:25:03.396Z,22.36
2019-05-06T08:26:10.038Z,21.84
2019-05-06T08:27:02.892Z,22.15
2019-05-06T08:28:02.295Z,21.25
2019-05-06T08:29:02.816Z,20.34
2019-05-06T08:30:02.445Z,19.55
2019-05-06T08:31:02.419Z,18.88
2019-05-06T08:32:02.905Z,18.50
2019-05-06T08:33:02.249Z,18.43
2019-05-06T08:34:02.690Z,18.96
2019-05-06T08:35:03.297Z,24.25
2019-05-06T08:36:08.938Z,24.84
2019-05-06T08:37:02.488Z,26.12
2019-05-06T08:38:02.358Z,25.21
2019-05-06T08:39:02.730Z,23.10
2019-05-06T08:40:03.170Z,21.75
2019-05-06T08:41:02.733Z,21.01
2019-05-06T08:42:02.678Z,20.74
2019-05-06T08:43:02.219Z,20.56
2019-05-06T08:44:02.584Z,20.34
2019-05-06T08:45:02.231Z,20.91
2019-05-06T08:46:03.158Z,25.68
2019-05-06T08:47:02.483Z,29.83
2019-05-06T08:48:02.948Z,27.50
2019-05-06T08:49:03.124Z,28.12
2019-05-06T08:50:02.430Z,32.88
2019-05-06T08:51:02.702Z,34.76
2019-05-06T08:52:02.424Z,34.17
2019-05-06T08:53:04.835Z,37.17
2019-05-06T08:54:03.089Z,35.19
2019-05-06T08:55:04.320Z,32.47
2019-05-06T08:56:01.945Z,30.14
2019-05-06T08:57:02.596Z,29.73
2019-05-06T08:58:02.995Z,28.86
2019-05-06T08:59:03.019Z,28.65
2019-05-06T09:00:02.904Z,28.96
2019-05-06T09:01:02.821Z,27.89
2019-05-06T09:02:03.056Z,27.98
2019-05-06T09:03:04.027Z,28.36
2019-05-06T09:04:11.445Z,26.58
2019-05-06T09:05:02.952Z,25.20
2019-05-06T09:06:03.029Z,24.10
2019-05-06T09:07:02.745Z,23.25
2019-05-06T09:08:03.237Z,22.69
2019-05-06T09:09:02.375Z,22.21
2019-05-06T09:10:02.535Z,21.80
2019-05-06T09:11:02.949Z,21.47
2019-05-06T09:12:02.679Z,21.22
2019-05-06T09:13:02.014Z,21.11
2019-05-06T09:14:03.140Z,20.90
2019-05-06T09:15:03.257Z,21.68
2019-05-06T09:16:02.460Z,24.51
2019-05-06T09:17:02.619Z,27.54
2019-05-06T09:18:02.814Z,31.18
2019-05-06T09:19:04.310Z,30.77
2019-05-06T09:20:02.626Z,30.03
2019-05-06T09:21:02.836Z,33.54
2019-05-06T09:22:02.479Z,37.33
2019-05-06T09:23:04.213Z,36.43
2019-05-06T09:24:02.232Z,36.83
2019-05-06T09:25:02.448Z,40.27
2019-05-06T09:26:02.657Z,40.51
2019-05-06T09:27:02.824Z,36.73
2019-05-06T09:28:02.532Z,34.20
2019-05-06T09:29:02.299Z,33.16
2019-05-06T09:30:02.848Z,35.34
2019-05-06T09:31:02.233Z,34.88
2019-05-06T09:32:01.818Z,38.20
2019-05-06T09:33:02.511Z,41.03
2019-05-06T09:34:02.795Z,37.03
2019-05-06T09:35:02.742Z,33.64
2019-05-06T09:36:02.808Z,31.15
2019-05-06T09:37:03.373Z,30.02
2019-05-06T09:38:02.191Z,33.93
2019-05-06T09:39:02.288Z,37.14
2019-05-06T09:40:02.774Z,39.28
2019-05-06T09:41:00.507Z,40.89
2019-05-06T09:42:02.263Z,42.22
2019-05-06T09:43:04.446Z,43.30
2019-05-06T09:44:02.929Z,44.26
2019-05-06T09:45:02.250Z,45.18
2019-05-06T09:46:02.391Z,46.29
2019-05-06T09:47:02.387Z,46.60
2019-05-06T09:48:00.455Z,47.07
2019-05-06T09:49:00.405Z,46.79
2019-05-06T09:50:02.799Z,44.91
2019-05-06T09:51:02.754Z,44.00
2019-05-06T09:52:02.476Z,43.90
2019-05-06T09:53:02.490Z,44.77
2019-05-06T09:54:03.784Z,45.71
2019-05-06T09:55:03.184Z,47.01
2019-05-06T09:56:00.364Z,48.26
2019-05-06T09:57:02.256Z,48.76
2019-05-06T09:58:03.157Z,46.83
2019-05-06T09:59:02.201Z,46.58
2019-05-06T10:00:04.395Z,46.48
2019-05-06T10:01:02.517Z,45.34
2019-05-06T10:02:00.277Z,44.13
2019-05-06T10:03:09.583Z,42.49
2019-05-06T10:04:03.294Z,40.86
2019-05-06T10:05:03.325Z,39.83
2019-05-06T10:06:02.525Z,39.13
2019-05-06T10:07:02.502Z,37.73
2019-05-06T10:08:00.209Z,35.73
2019-05-06T10:09:04.229Z,33.76
2019-05-06T10:10:00.212Z,32.01
2019-05-06T10:11:00.202Z,30.60
2019-05-06T10:12:02.055Z,29.49
2019-05-06T10:13:02.551Z,28.55
2019-05-06T10:14:00.142Z,27.76
2019-05-06T10:15:02.936Z,27.06
2019-05-06T10:16:02.735Z,26.45
2019-05-06T10:17:04.175Z,25.90
2019-05-06T10:18:00.096Z,25.51
2019-05-06T10:19:02.443Z,25.41
2019-05-06T10:20:02.599Z,25.32
2019-05-06T10:21:00.056Z,25.33
2019-05-06T10:22:00.063Z,25.48
2019-05-06T10:23:00.052Z,25.94
2019-05-06T10:24:02.208Z,26.60
2019-05-06T10:25:00.044Z,27.35
2019-05-06T10:26:00.018Z,28.08
2019-05-06T10:27:00.007Z,28.77
2019-05-06T10:28:02.606Z,29.29
2019-05-06T10:28:59.978Z,29.67
2019-05-06T10:29:59.969Z,29.82
2019-05-06T10:31:02.031Z,29.93
2019-05-06T10:31:59.959Z,29.87
2019-05-06T10:33:01.993Z,29.96
2019-05-06T10:33:59.957Z,30.06
2019-05-06T10:34:59.910Z,30.25
2019-05-06T10:36:02.461Z,30.39
2019-05-06T10:37:11.484Z,30.57
2019-05-06T10:38:02.832Z,30.74
2019-05-06T10:39:02.109Z,30.62
2019-05-06T10:39:59.869Z,30.34
2019-05-06T10:41:05.108Z,30.13
2019-05-06T10:42:00.841Z,30.14
2019-05-06T10:42:59.829Z,30.07
2019-05-06T10:43:59.859Z,30.21
2019-05-06T10:45:01.684Z,29.93
2019-05-06T10:46:01.802Z,29.54
2019-05-06T10:46:59.779Z,32.05
2019-05-06T10:47:59.780Z,32.36
2019-05-06T10:49:02.415Z,34.63
2019-05-06T10:50:02.091Z,36.27
2019-05-06T10:50:59.757Z,35.26
2019-05-06T10:51:59.738Z,37.11
2019-05-06T10:52:59.717Z,39.80
2019-05-06T10:53:59.727Z,42.36
2019-05-06T10:54:59.698Z,44.67
2019-05-06T10:56:02.114Z,46.94
2019-05-06T10:57:02.112Z,48.49
2019-05-06T10:58:02.393Z,46.71
2019-05-06T10:58:59.661Z,42.28
2019-05-06T10:59:59.655Z,38.95
2019-05-06T11:00:59.648Z,36.94
2019-05-06T11:01:59.619Z,35.78
2019-05-06T11:02:59.609Z,34.03
2019-05-06T11:03:59.610Z,32.12
2019-05-06T11:05:02.533Z,30.64
2019-05-06T11:05:59.581Z,29.48
2019-05-06T11:06:59.567Z,28.56
2019-05-06T11:07:59.547Z,27.76
2019-05-06T11:08:59.554Z,27.02
2019-05-06T11:09:59.548Z,26.45
2019-05-06T11:11:14.091Z,25.86
2019-05-06T11:12:00.515Z,25.27
2019-05-06T11:12:59.501Z,24.69
2019-05-06T11:13:59.507Z,24.14
2019-05-06T11:14:59.488Z,23.64
2019-05-06T11:15:59.489Z,23.17
2019-05-06T11:16:59.457Z,22.78
2019-05-06T11:17:59.442Z,22.48
2019-05-06T11:18:59.449Z,22.28
2019-05-06T11:19:59.427Z,22.14
2019-05-06T11:20:59.432Z,22.12
2019-05-06T11:21:59.404Z,22.26
2019-05-06T11:22:59.391Z,22.59
2019-05-06T11:23:59.381Z,23.14
2019-05-06T11:24:59.370Z,24.19
2019-05-06T11:25:59.379Z,26.02
2019-05-06T11:26:59.370Z,27.38
2019-05-06T11:27:59.373Z,28.52
2019-05-06T11:28:59.341Z,30.62
2019-05-06T11:29:59.348Z,32.03
2019-05-06T11:30:59.313Z,33.44
2019-05-06T11:31:59.309Z,33.87
2019-05-06T11:32:59.294Z,34.28
2019-05-06T11:33:59.323Z,34.51
2019-05-06T11:34:59.255Z,34.81
2019-05-06T11:35:59.262Z,34.52
2019-05-06T11:36:59.251Z,34.30
2019-05-06T11:37:59.239Z,34.06
2019-05-06T11:38:59.251Z,34.08
2019-05-06T11:39:59.213Z,34.00
2019-05-06T11:40:59.193Z,33.68
2019-05-06T11:42:14.840Z,33.15
2019-05-06T11:43:00.202Z,32.84
2019-05-06T11:43:59.163Z,32.17
2019-05-06T11:44:59.158Z,31.10
2019-05-06T11:45:59.143Z,29.78
2019-05-06T11:46:59.130Z,28.35
2019-05-06T11:47:59.132Z,26.96
2019-05-06T11:48:59.137Z,25.74
2019-05-06T11:49:59.109Z,24.67
2019-05-06T11:50:59.112Z,23.64
2019-05-06T11:51:59.076Z,22.68
2019-05-06T11:52:59.064Z,21.83
2019-05-06T11:53:59.080Z,21.06
2019-05-06T11:54:59.065Z,20.33
2019-05-06T11:55:59.054Z,19.59
2019-05-06T11:56:59.025Z,18.94
2019-05-06T11:57:59.015Z,18.36
2019-05-06T11:58:59.006Z,17.87
2019-05-06T11:59:58.993Z,17.46
2019-05-06T12:00:58.992Z,17.08
2019-05-06T12:01:58.965Z,16.76
2019-05-06T12:02:58.956Z,16.50
2019-05-06T12:03:58.990Z,16.26
2019-05-06T12:04:58.942Z,16.06
2019-05-06T12:05:58.916Z,15.92
2019-05-06T12:07:10.128Z,15.82
2019-05-06T12:08:04.510Z,15.79
2019-05-06T12:08:59.920Z,15.78
2019-05-06T12:09:58.887Z,15.77
2019-05-06T12:10:58.865Z,15.81
2019-05-06T12:11:58.869Z,15.90
2019-05-06T12:12:58.869Z,16.04
2019-05-06T12:13:58.864Z,16.27
2019-05-06T12:14:58.843Z,16.62
2019-05-06T12:15:58.811Z,17.06
2019-05-06T12:16:58.804Z,17.58
2019-05-06T12:17:58.793Z,18.22
2019-05-06T12:18:59.899Z,18.91
2019-05-06T12:19:58.779Z,19.64
2019-05-06T12:21:09.016Z,20.48
2019-05-06T12:21:59.757Z,21.26
2019-05-06T12:22:58.754Z,21.82
2019-05-06T12:23:58.741Z,22.32
2019-05-06T12:24:58.730Z,22.76
2019-05-06T12:25:58.715Z,23.06
2019-05-06T12:26:58.705Z,23.23
2019-05-06T12:27:58.679Z,23.30
2019-05-06T12:28:58.701Z,23.11
2019-05-06T12:29:58.677Z,22.63
2019-05-06T12:30:58.670Z,22.13
2019-05-06T12:31:58.644Z,21.72
2019-05-06T12:32:58.638Z,21.42
2019-05-06T12:33:58.648Z,21.29
2019-05-06T12:34:58.637Z,21.15
2019-05-06T12:35:58.630Z,20.98
2019-05-06T12:36:58.615Z,20.73
2019-05-06T12:37:58.567Z,20.49
2019-05-06T12:38:58.560Z,20.31
2019-05-06T12:39:58.585Z,20.16
2019-05-06T12:41:00.059Z,20.00
2019-05-06T12:41:58.533Z,19.86
2019-05-06T12:42:58.519Z,19.72
2019-05-06T12:43:58.517Z,19.54
2019-05-06T12:44:58.501Z,19.34
2019-05-06T12:45:58.487Z,19.09
2019-05-06T12:47:00.062Z,18.85
2019-05-06T12:47:58.475Z,18.61
2019-05-06T12:48:58.464Z,18.38
2019-05-06T12:49:58.457Z,18.21
2019-05-06T12:50:58.474Z,18.14
2019-05-06T12:51:58.421Z,18.09
2019-05-06T12:52:58.412Z,18.09
2019-05-06T12:53:58.399Z,18.10
2019-05-06T12:55:16.406Z,18.11
2019-05-06T12:55:59.387Z,18.08
2019-05-06T12:56:58.366Z,18.05
2019-05-06T12:57:58.360Z,18.02
2019-05-06T12:58:58.341Z,17.99
2019-05-06T12:59:58.361Z,17.93
2019-05-06T13:00:58.336Z,17.84
2019-05-06T13:01:58.312Z,17.72
2019-05-06T13:02:58.318Z,17.58
2019-05-06T13:03:58.295Z,17.50
2019-05-06T13:05:00.836Z,17.47